createdAt,value
2022-12-15T00:09:07.550Z,31.70
2022-12-15T00:19:56.047Z,36.20
2022-12-15T00:30:41.321Z,28.70
2022-12-15T00:41:08.835Z,33.00
2022-12-15T00:51:53.870Z,29.90
2022-12-15T01:02:38.644Z,28.30
2022-12-15T01:13:23.957Z,27.60
2022-12-15T01:23:51.477Z,25.80
2022-12-15T01:34:20.346Z,23.50
2022-12-15T01:44:52.030Z,24.00
2022-12-15T01:55:21.329Z,29.20
2022-12-15T02:05:49.201Z,27.40
2022-12-15T02:16:23.748Z,27.40
2022-12-15T02:27:16.983Z,32.10
2022-12-15T02:37:46.206Z,25.10
2022-12-15T02:48:30.036Z,25.50
2022-12-15T02:59:11.737Z,24.50
2022-12-15T03:09:39.185Z,30.60
2022-12-15T03:20:09.064Z,28.40
2022-12-15T03:30:36.522Z,30.70
2022-12-15T03:41:04.114Z,33.00
2022-12-15T03:51:31.520Z,29.10
2022-12-15T04:01:59.286Z,36.00
2022-12-15T04:12:26.904Z,35.80
2022-12-15T04:22:54.428Z,34.50
2022-12-15T04:33:40.261Z,32.50
2022-12-15T04:44:25.836Z,33.50
2022-12-15T04:55:10.530Z,32.10
2022-12-15T05:05:55.620Z,31.70
2022-12-15T05:16:41.250Z,35.10
2022-12-15T05:27:26.651Z,33.20
2022-12-15T05:37:54.632Z,35.60
2022-12-15T05:48:22.924Z,35.10
2022-12-15T05:58:51.084Z,35.10
2022-12-15T06:09:19.240Z,34.70
2022-12-15T06:19:47.337Z,36.00
2022-12-15T06:30:16.559Z,30.90
2022-12-15T06:40:44.189Z,32.40
2022-12-15T06:51:17.154Z,28.60
2022-12-15T07:01:45.128Z,28.20
2022-12-15T07:12:15.080Z,27.10
2022-12-15T07:22:42.634Z,28.70
2022-12-15T07:33:10.126Z,27.30
2022-12-15T07:43:38.544Z,26.90
2022-12-15T07:54:06.805Z,24.30
2022-12-15T08:04:34.705Z,25.90
2022-12-15T08:15:02.063Z,23.40
2022-12-15T08:25:30.575Z,25.70
2022-12-15T08:36:03.151Z,25.60
2022-12-15T08:46:32.115Z,24.40
2022-12-15T08:56:59.612Z,27.30
2022-12-15T09:07:27.061Z,24.30
2022-12-15T09:17:54.488Z,23.30
2022-12-15T09:28:22.049Z,23.00
2022-12-15T09:38:50.537Z,27.10
2022-12-15T09:49:29.181Z,26.70
2022-12-15T10:00:08.347Z,25.00
2022-12-15T10:10:44.128Z,29.10
2022-12-15T10:21:15.332Z,27.00
2022-12-15T10:31:49.853Z,27.80
2022-12-15T10:42:21.123Z,27.40
2022-12-15T10:52:48.997Z,33.60
2022-12-15T11:03:26.311Z,32.40
2022-12-15T11:14:13.266Z,32.80
2022-12-15T11:24:46.591Z,37.20
2022-12-15T11:35:20.753Z,34.70
2022-12-15T11:46:29.549Z,34.00
2022-12-15T11:57:03.223Z,25.40
2022-12-15T12:07:42.343Z,29.10
2022-12-15T12:18:19.109Z,26.40
2022-12-15T12:28:51.193Z,27.40
2022-12-15T12:39:21.935Z,25.90
2022-12-15T12:49:53.036Z,28.40
2022-12-15T13:00:24.388Z,22.70
2022-12-15T13:11:25.017Z,24.00
2022-12-15T13:21:58.597Z,24.90
2022-12-15T13:32:33.424Z,26.80
2022-12-15T13:43:09.292Z,29.60
2022-12-15T13:53:43.221Z,26.70
2022-12-15T14:04:15.893Z,26.00
2022-12-15T14:14:50.296Z,25.70
2022-12-15T14:25:21.843Z,31.30
2022-12-15T14:35:52.488Z,25.90
2022-12-15T14:46:23.663Z,40.60
2022-12-15T14:57:00.376Z,30.40
2022-12-15T15:07:29.614Z,33.60
2022-12-15T15:17:59.583Z,29.80
2022-12-15T15:28:29.569Z,30.60
2022-12-15T15:38:58.196Z,29.80
2022-12-15T15:49:26.199Z,33.80
2022-12-15T15:59:53.595Z,33.50
2022-12-15T16:10:21.955Z,30.40
2022-12-15T16:20:51.702Z,37.70
2022-12-15T16:31:35.624Z,34.70
2022-12-15T16:42:14.476Z,40.90
2022-12-15T16:52:42.338Z,36.70
2022-12-15T17:03:15.292Z,35.50
2022-12-15T17:14:03.839Z,34.80
2022-12-15T17:25:02.857Z,32.50
2022-12-15T17:35:56.866Z,31.80
2022-12-15T17:46:49.867Z,32.90
2022-12-15T17:57:42.814Z,37.00
2022-12-15T18:08:47.762Z,34.60
2022-12-15T18:19:39.758Z,34.50
2022-12-15T18:30:40.767Z,37.90
2022-12-15T18:41:32.794Z,37.60
2022-12-15T18:52:35.127Z,38.80
2022-12-15T19:03:34.043Z,33.70
2022-12-15T19:14:52.825Z,31.60
2022-12-15T19:25:53.782Z,27.20
2022-12-15T19:36:53.739Z,26.90
2022-12-15T19:47:52.761Z,25.10
2022-12-15T19:58:51.700Z,27.20
2022-12-15T20:20:47.713Z,28.70
2022-12-15T20:31:39.795Z,28.30
2022-12-15T20:42:38.692Z,28.10
2022-12-15T21:04:39.700Z,27.00
2022-12-15T21:15:32.649Z,24.70
2022-12-15T21:26:26.676Z,26.00
2022-12-15T21:37:36.661Z,30.00
2022-12-15T21:48:33.538Z,31.40
2022-12-15T21:59:02.484Z,32.60
2022-12-15T22:09:29.940Z,30.20
2022-12-15T22:19:57.576Z,35.00
2022-12-15T22:30:27.231Z,27.70
2022-12-15T22:40:58.599Z,27.20
2022-12-15T22:51:26.107Z,28.30
2022-12-15T23:01:54.398Z,22.60
2022-12-15T23:12:22.155Z,23.60
2022-12-15T23:22:50.198Z,26.00
2022-12-15T23:33:18.175Z,21.10
2022-12-15T23:43:46.492Z,22.40
2022-12-15T23:54:14.583Z,18.90
